BGI weather

Sir Grantley Adams International Airport
Bridgetown, Christ Church, Barbados

Public forecast

Using degrees Celsius for public forecast. Weather courtesy of forecast.io.

METAR (pilot weather report)

Retrieved 2019/08/25 03:00 UTC (34 minutes ago):

TBPB 250300Z 09014KT 9999 -SHRA BKN018 28/24 Q1016 NOSIG

TAF (pilot weather forecast)

Forecast is more than 12 hours old.

Retrieved 2019/08/24 00:06 UTC (1 day ago):

TAF TBPB 242300Z 2500/2524 10015KT 9999 SCT020